createdAt,value
2018-04-11T00:00:23.649Z,6.89
2018-04-11T00:01:23.653Z,6.91
2018-04-11T00:02:23.698Z,6.94
2018-04-11T00:03:23.745Z,6.89
2018-04-11T00:04:23.788Z,6.94
2018-04-11T00:05:23.860Z,6.90
2018-04-11T00:06:23.902Z,6.80
2018-04-11T00:07:23.937Z,6.83
2018-04-11T00:08:23.968Z,6.66
2018-04-11T00:09:24.013Z,6.69
2018-04-11T00:10:24.060Z,6.65
2018-04-11T00:11:24.131Z,6.65
2018-04-11T00:12:24.175Z,6.53
2018-04-11T00:13:24.847Z,6.46
2018-04-11T00:14:24.841Z,6.33
2018-04-11T00:15:24.287Z,6.38
2018-04-11T00:16:24.354Z,6.36
2018-04-11T00:17:24.386Z,6.36
2018-04-11T00:18:24.429Z,6.26
2018-04-11T00:19:24.467Z,6.25
2018-04-11T00:20:24.527Z,6.11
2018-04-11T00:21:24.589Z,6.22
2018-04-11T00:22:24.603Z,6.18
2018-04-11T00:23:24.655Z,6.26
2018-04-11T00:24:24.693Z,6.35
2018-04-11T00:25:24.741Z,6.35
2018-04-11T00:26:24.818Z,6.36
2018-04-11T00:27:24.829Z,6.36
2018-04-11T00:28:24.871Z,6.35
2018-04-11T00:29:24.915Z,6.35
2018-04-11T00:30:24.968Z,6.32
2018-04-11T00:31:25.028Z,6.29
2018-04-11T00:32:25.087Z,6.40
2018-04-11T00:33:25.091Z,6.36
2018-04-11T00:34:25.137Z,6.38
2018-04-11T00:35:25.840Z,6.38
2018-04-11T00:36:25.224Z,6.35
2018-04-11T00:37:25.294Z,6.35
2018-04-11T00:38:25.316Z,6.33
2018-04-11T00:39:25.359Z,6.22
2018-04-11T00:40:25.400Z,6.32
2018-04-11T00:41:25.450Z,6.33
2018-04-11T00:42:25.516Z,6.41
2018-04-11T00:43:25.560Z,6.38
2018-04-11T00:44:25.584Z,6.38
2018-04-11T00:45:25.625Z,6.30
2018-04-11T00:46:25.680Z,6.36
2018-04-11T00:47:25.753Z,6.36
2018-04-11T00:48:25.761Z,6.33
2018-04-11T00:49:25.806Z,6.33
2018-04-11T00:50:25.849Z,6.30
2018-04-11T00:51:25.896Z,6.36
2018-04-11T00:52:25.976Z,6.40
2018-04-11T00:53:25.984Z,6.32
2018-04-11T00:54:26.027Z,6.32
2018-04-11T00:55:26.075Z,6.30
2018-04-11T00:56:26.121Z,6.26
2018-04-11T00:57:26.186Z,6.25
2018-04-11T00:58:26.206Z,6.22
2018-04-11T00:59:26.280Z,6.26
2018-04-11T01:00:26.294Z,6.29
2018-04-11T01:01:26.340Z,6.18
2018-04-11T01:02:26.384Z,6.30
2018-04-11T01:03:26.429Z,6.21
2018-04-11T01:04:26.498Z,6.32
2018-04-11T01:05:26.519Z,6.28
2018-04-11T01:06:26.564Z,6.18
2018-04-11T01:07:26.606Z,6.25
2018-04-11T01:08:26.656Z,6.16
2018-04-11T01:09:26.726Z,6.16
2018-04-11T01:10:26.738Z,6.11
2018-04-11T01:11:26.783Z,6.14
2018-04-11T01:12:26.827Z,6.00
2018-04-11T01:13:26.873Z,5.95
2018-04-11T01:14:26.939Z,5.92
2018-04-11T01:15:26.990Z,5.92
2018-04-11T01:16:27.008Z,5.85
2018-04-11T01:17:27.050Z,5.78
2018-04-11T01:18:27.097Z,5.85
2018-04-11T01:19:27.139Z,5.96
2018-04-11T01:20:27.220Z,5.92
2018-04-11T01:21:27.226Z,5.91
2018-04-11T01:22:27.272Z,5.93
2018-04-11T01:23:27.323Z,5.92
2018-04-11T01:24:27.361Z,5.83
2018-04-11T01:25:27.436Z,5.91
2018-04-11T01:26:27.455Z,5.85
2018-04-11T01:27:27.495Z,5.86
2018-04-11T01:28:27.540Z,5.82
2018-04-11T01:29:27.582Z,5.68
2018-04-11T01:30:27.652Z,5.75
2018-04-11T01:31:27.696Z,5.68
2018-04-11T01:32:27.725Z,5.64
2018-04-11T01:33:27.760Z,5.67
2018-04-11T01:34:27.806Z,5.70
2018-04-11T01:35:27.850Z,5.73
2018-04-11T01:36:27.917Z,5.74
2018-04-11T01:37:27.940Z,5.70
2018-04-11T01:38:27.988Z,5.67
2018-04-11T01:39:28.027Z,5.71
2018-04-11T01:40:28.068Z,5.73
2018-04-11T01:41:28.145Z,5.74
2018-04-11T01:42:28.158Z,5.71
2018-04-11T01:43:28.203Z,5.75
2018-04-11T01:44:28.245Z,5.81
2018-04-11T01:45:28.291Z,5.73
2018-04-11T01:46:28.366Z,5.74
2018-04-11T01:47:28.378Z,5.77
2018-04-11T01:48:28.422Z,5.83
2018-04-11T01:49:28.475Z,5.75
2018-04-11T01:50:28.511Z,5.68
2018-04-11T01:51:28.598Z,5.67
2018-04-11T01:52:28.604Z,5.70
2018-04-11T01:53:28.644Z,5.66
2018-04-11T01:54:28.693Z,5.68
2018-04-11T01:55:28.733Z,5.64
2018-04-11T01:56:28.802Z,5.67
2018-04-11T01:57:28.824Z,5.63
2018-04-11T01:58:28.888Z,5.67
2018-04-11T01:59:28.911Z,5.66
2018-04-11T02:00:28.959Z,5.67
2018-04-11T02:01:28.999Z,5.66
2018-04-11T02:02:29.042Z,5.71
2018-04-11T02:03:29.111Z,5.60
2018-04-11T02:04:29.131Z,5.57
2018-04-11T02:05:29.175Z,5.59
2018-04-11T02:06:29.229Z,5.49
2018-04-11T02:07:29.270Z,5.55
2018-04-11T02:08:29.341Z,5.55
2018-04-11T02:09:29.351Z,5.55
2018-04-11T02:10:29.396Z,5.49
2018-04-11T02:11:29.441Z,5.49
2018-04-11T02:12:29.485Z,5.57
2018-04-11T02:13:29.555Z,5.56
2018-04-11T02:14:29.607Z,5.64
2018-04-11T02:15:29.616Z,5.59
2018-04-11T02:16:29.661Z,5.55
2018-04-11T02:17:29.705Z,5.56
2018-04-11T02:18:29.749Z,5.60
2018-04-11T02:19:29.823Z,5.63
2018-04-11T02:20:29.837Z,5.59
2018-04-11T02:21:29.879Z,5.63
2018-04-11T02:22:29.924Z,5.64
2018-04-11T02:23:29.971Z,5.59
2018-04-11T02:24:30.052Z,5.64
2018-04-11T02:25:30.057Z,5.60
2018-04-11T02:26:30.104Z,5.56
2018-04-11T02:27:30.151Z,5.49
2018-04-11T02:28:30.188Z,5.55
2018-04-11T02:29:30.257Z,5.50
2018-04-11T02:30:30.308Z,5.45
2018-04-11T02:31:30.322Z,5.53
2018-04-11T02:32:30.364Z,5.45
2018-04-11T02:33:30.409Z,5.52
2018-04-11T02:34:30.456Z,5.40
2018-04-11T02:35:30.523Z,5.43
2018-04-11T02:36:30.541Z,5.45
2018-04-11T02:37:30.590Z,5.46
2018-04-11T02:38:30.632Z,5.41
2018-04-11T02:39:30.675Z,5.48
2018-04-11T02:40:30.741Z,5.46
2018-04-11T02:41:30.761Z,5.50
2018-04-11T02:42:30.812Z,5.55
2018-04-11T02:43:30.853Z,5.50
2018-04-11T02:44:30.895Z,5.38
2018-04-11T02:45:30.964Z,5.38
2018-04-11T02:46:31.016Z,5.34
2018-04-11T02:47:31.835Z,5.35
2018-04-11T02:48:31.076Z,5.28
2018-04-11T02:49:31.113Z,5.07
2018-04-11T02:50:31.157Z,5.10
2018-04-11T02:51:31.227Z,4.94
2018-04-11T02:52:31.244Z,5.02
2018-04-11T02:53:31.289Z,4.95
2018-04-11T02:54:31.335Z,5.01
2018-04-11T02:55:31.376Z,4.94
2018-04-11T02:56:31.443Z,4.94
2018-04-11T02:57:31.486Z,4.99
2018-04-11T02:58:31.507Z,4.94
2018-04-11T02:59:31.553Z,4.98
2018-04-11T03:00:31.603Z,5.04
2018-04-11T03:01:31.640Z,5.01
2018-04-11T03:02:31.708Z,4.99
2018-04-11T03:03:31.727Z,5.01
2018-04-11T03:04:31.769Z,4.99
2018-04-11T03:05:31.814Z,4.94
2018-04-11T03:06:31.857Z,4.91
2018-04-11T03:07:31.963Z,4.77
2018-04-11T03:08:31.944Z,4.79
2018-04-11T03:09:31.990Z,4.83
2018-04-11T03:10:32.034Z,4.76
2018-04-11T03:11:32.079Z,4.76
2018-04-11T03:12:32.144Z,4.70
2018-04-11T03:13:32.166Z,4.72
2018-04-11T03:14:32.208Z,4.72
2018-04-11T03:15:32.252Z,4.65
2018-04-11T03:16:32.296Z,4.69
2018-04-11T03:17:32.373Z,4.65
2018-04-11T03:18:32.383Z,4.64
2018-04-11T03:19:32.428Z,4.69
2018-04-11T03:20:32.471Z,4.69
2018-04-11T03:21:32.512Z,4.65
2018-04-11T03:22:32.590Z,4.67
2018-04-11T03:23:32.628Z,4.77
2018-04-11T03:24:32.644Z,4.75
2018-04-11T03:25:32.686Z,4.72
2018-04-11T03:26:32.730Z,4.80
2018-04-11T03:27:32.773Z,4.84
2018-04-11T03:28:32.856Z,4.77
2018-04-11T03:29:32.861Z,4.79
2018-04-11T03:30:32.908Z,4.92
2018-04-11T03:31:32.948Z,4.89
2018-04-11T03:32:32.991Z,4.89
2018-04-11T03:33:33.084Z,4.86
2018-04-11T03:34:33.112Z,4.88
2018-04-11T03:35:33.121Z,4.88
2018-04-11T03:36:33.170Z,4.80
2018-04-11T03:37:33.208Z,4.77
2018-04-11T03:38:33.256Z,4.83
2018-04-11T03:39:33.324Z,4.83
2018-04-11T03:40:33.340Z,4.79
2018-04-11T03:41:33.388Z,4.80
2018-04-11T03:42:33.427Z,4.80
2018-04-11T03:43:33.470Z,4.83
2018-04-11T03:44:33.537Z,4.88
2018-04-11T03:45:33.557Z,4.77
2018-04-11T03:46:33.602Z,4.76
2018-04-11T03:47:33.647Z,4.83
2018-04-11T03:48:33.694Z,4.88
2018-04-11T03:49:33.756Z,4.80
2018-04-11T03:50:33.779Z,4.77
2018-04-11T03:51:33.820Z,4.84
2018-04-11T03:52:33.862Z,4.75
2018-04-11T03:53:33.908Z,4.76
2018-04-11T03:54:33.983Z,4.83
2018-04-11T03:55:33.997Z,4.76
2018-04-11T03:56:34.037Z,4.91
2018-04-11T03:57:34.085Z,4.91
2018-04-11T03:58:34.123Z,4.94
2018-04-11T03:59:34.210Z,4.94
2018-04-11T04:00:34.211Z,4.95
2018-04-11T04:01:34.264Z,5.01
2018-04-11T04:02:34.297Z,5.02
2018-04-11T04:03:34.342Z,5.05
2018-04-11T04:04:34.407Z,5.04
2018-04-11T04:05:34.429Z,4.99
2018-04-11T04:06:34.504Z,5.01
2018-04-11T04:07:34.541Z,5.10
2018-04-11T04:08:34.559Z,5.05
2018-04-11T04:09:34.605Z,5.01
2018-04-11T04:10:34.645Z,5.05
2018-04-11T04:11:34.714Z,4.99
2018-04-11T04:12:34.734Z,4.98
2018-04-11T04:13:34.776Z,4.99
2018-04-11T04:14:34.821Z,5.01
2018-04-11T04:15:34.864Z,4.94
2018-04-11T04:16:34.941Z,4.96
2018-04-11T04:17:34.956Z,4.94
2018-04-11T04:18:34.997Z,4.88
2018-04-11T04:19:35.041Z,4.86
2018-04-11T04:20:35.091Z,4.89
2018-04-11T04:21:35.149Z,4.89
2018-04-11T04:22:35.169Z,4.89
2018-04-11T04:23:35.212Z,4.89
2018-04-11T04:24:35.257Z,4.79
2018-04-11T04:25:35.299Z,4.80
2018-04-11T04:26:35.373Z,4.83
2018-04-11T04:27:35.388Z,4.76
2018-04-11T04:28:35.434Z,4.73
2018-04-11T04:29:35.472Z,4.70
2018-04-11T04:30:35.520Z,4.76
2018-04-11T04:31:35.601Z,4.73
2018-04-11T04:32:35.612Z,4.72
2018-04-11T04:33:35.648Z,4.79
2018-04-11T04:34:35.689Z,4.72
2018-04-11T04:35:35.733Z,4.62
2018-04-11T04:36:35.802Z,4.72
2018-04-11T04:37:35.848Z,4.73
2018-04-11T04:38:35.867Z,4.67
2018-04-11T04:39:35.915Z,4.73
2018-04-11T04:40:35.952Z,4.59
2018-04-11T04:41:35.996Z,4.51
2018-04-11T04:42:36.062Z,4.51
2018-04-11T04:43:36.104Z,4.37
2018-04-11T04:44:36.127Z,4.46
2018-04-11T04:45:36.168Z,4.39
2018-04-11T04:46:36.215Z,4.52
2018-04-11T04:47:36.295Z,4.55
2018-04-11T04:48:36.297Z,4.52
2018-04-11T04:49:36.342Z,4.54
2018-04-11T04:50:36.383Z,4.50
2018-04-11T04:51:36.428Z,4.50
2018-04-11T04:52:36.498Z,4.52
2018-04-11T04:53:36.513Z,4.51
2018-04-11T04:54:36.559Z,4.50
2018-04-11T04:55:36.601Z,4.52
2018-04-11T04:56:36.642Z,4.62
2018-04-11T04:57:36.716Z,4.62
2018-04-11T04:58:36.731Z,4.61
2018-04-11T04:59:36.777Z,4.64
2018-04-11T05:00:36.818Z,4.70
2018-04-11T05:01:36.859Z,4.72
2018-04-11T05:02:36.945Z,4.73
2018-04-11T05:03:36.949Z,4.77
2018-04-11T05:04:36.989Z,4.73
2018-04-11T05:05:37.032Z,4.76
2018-04-11T05:06:37.075Z,4.77
2018-04-11T05:07:37.205Z,4.86
2018-04-11T05:08:37.163Z,4.76
2018-04-11T05:09:37.210Z,4.80
2018-04-11T05:10:37.250Z,4.72
2018-04-11T05:11:37.294Z,4.76
2018-04-11T05:12:37.368Z,4.79
2018-04-11T05:13:37.382Z,4.72
2018-04-11T05:14:37.423Z,4.70
2018-04-11T05:15:37.497Z,4.61
2018-04-11T05:16:37.508Z,4.64
2018-04-11T05:17:37.551Z,4.64
2018-04-11T05:18:37.602Z,4.77
2018-04-11T05:19:37.640Z,4.70
2018-04-11T05:20:37.717Z,4.69
2018-04-11T05:21:37.729Z,4.73
2018-04-11T05:22:37.773Z,4.83
2018-04-11T05:23:37.817Z,4.80
2018-04-11T05:24:37.855Z,4.75
2018-04-11T05:25:37.924Z,4.83
2018-04-11T05:26:37.943Z,4.91
2018-04-11T05:27:37.986Z,4.86
2018-04-11T05:28:38.030Z,4.91
2018-04-11T05:29:38.098Z,4.96
2018-04-11T05:30:38.119Z,4.98
2018-04-11T05:31:38.184Z,5.04
2018-04-11T05:32:38.240Z,5.09
2018-04-11T05:33:38.247Z,5.02
2018-04-11T05:34:38.298Z,5.01
2018-04-11T05:35:38.361Z,5.01
2018-04-11T05:36:38.404Z,5.04
2018-04-11T05:37:38.424Z,5.09
2018-04-11T05:38:38.468Z,5.14
2018-04-11T05:39:38.509Z,5.13
2018-04-11T05:40:38.552Z,5.23
2018-04-11T05:41:38.629Z,5.20
2018-04-11T05:42:38.640Z,5.31
2018-04-11T05:43:38.690Z,5.30
2018-04-11T05:44:38.726Z,5.30
2018-04-11T05:45:38.778Z,5.31
2018-04-11T05:46:38.849Z,5.38
2018-04-11T05:47:38.860Z,5.50
2018-04-11T05:48:38.907Z,5.46
2018-04-11T05:49:38.948Z,5.55
2018-04-11T05:50:39.000Z,5.53
2018-04-11T05:51:39.060Z,5.60
2018-04-11T05:52:39.102Z,5.66
2018-04-11T05:53:39.122Z,5.55
2018-04-11T05:54:39.172Z,5.68
2018-04-11T05:55:39.209Z,5.71
2018-04-11T05:56:39.258Z,5.82
2018-04-11T05:57:39.321Z,5.85
2018-04-11T05:58:39.342Z,5.86
2018-04-11T05:59:39.385Z,5.88
2018-04-11T06:00:39.428Z,5.91
2018-04-11T06:01:39.475Z,6.03
2018-04-11T06:02:39.550Z,6.09
2018-04-11T06:03:39.561Z,6.13
2018-04-11T06:04:39.606Z,6.28
2018-04-11T06:05:39.653Z,6.38
2018-04-11T06:06:39.695Z,6.65
2018-04-11T06:07:39.777Z,6.76
2018-04-11T06:08:39.781Z,6.90
2018-04-11T06:09:39.829Z,6.94
2018-04-11T06:10:39.871Z,6.94
2018-04-11T06:11:39.960Z,6.94
2018-04-11T06:12:39.985Z,6.98
2018-04-11T06:13:40.028Z,7.05
2018-04-11T06:14:40.049Z,7.08
2018-04-11T06:15:40.094Z,7.15
2018-04-11T06:16:40.139Z,7.15
2018-04-11T06:17:40.182Z,7.23
2018-04-11T06:18:40.250Z,7.23
2018-04-11T06:19:40.271Z,7.27
2018-04-11T06:20:40.320Z,7.29
2018-04-11T06:21:40.369Z,7.41
2018-04-11T06:22:40.411Z,7.49
2018-04-11T06:23:40.660Z,7.59
2018-04-11T06:24:40.493Z,7.71
2018-04-11T06:25:41.119Z,7.77
2018-04-11T06:26:40.586Z,7.81
2018-04-11T06:27:40.630Z,7.93
2018-04-11T06:28:40.697Z,7.97
2018-04-11T06:29:40.748Z,8.07
2018-04-11T06:30:40.763Z,8.14
2018-04-11T06:31:40.813Z,8.10
2018-04-11T06:32:40.854Z,8.17
2018-04-11T06:33:40.901Z,8.22
2018-04-11T06:34:40.975Z,8.21
2018-04-11T06:35:40.988Z,8.21
2018-04-11T06:36:41.033Z,8.29
2018-04-11T06:37:41.079Z,8.33
2018-04-11T06:38:41.126Z,8.35
2018-04-11T06:39:41.205Z,8.48
2018-04-11T06:40:41.223Z,8.48
2018-04-11T06:41:41.260Z,8.58
2018-04-11T06:42:41.310Z,8.63
2018-04-11T06:43:41.351Z,8.81
2018-04-11T06:44:41.426Z,8.88
2018-04-11T06:45:41.442Z,9.38
2018-04-11T06:46:41.488Z,9.99
2018-04-11T06:47:41.537Z,10.77
2018-04-11T06:48:41.579Z,11.65
2018-04-11T06:49:41.658Z,12.23
2018-04-11T06:50:41.699Z,12.89
2018-04-11T06:51:42.027Z,13.11
2018-04-11T06:52:41.811Z,13.87
2018-04-11T06:53:41.809Z,14.07
2018-04-11T06:54:41.897Z,14.42
2018-04-11T06:55:41.909Z,14.72
2018-04-11T06:56:41.951Z,14.95
2018-04-11T06:57:41.996Z,14.61
2018-04-11T06:58:42.044Z,14.44
2018-04-11T06:59:42.120Z,14.27
2018-04-11T07:00:42.137Z,14.29
2018-04-11T07:01:42.215Z,14.54
2018-04-11T07:02:42.232Z,15.19
2018-04-11T07:03:42.280Z,16.06
2018-04-11T07:04:42.326Z,16.41
2018-04-11T07:05:42.431Z,16.89
2018-04-11T07:06:42.450Z,17.36
2018-04-11T07:07:42.473Z,17.66
2018-04-11T07:08:42.520Z,17.87
2018-04-11T07:09:42.566Z,18.15
2018-04-11T07:10:42.616Z,18.34
2018-04-11T07:11:42.700Z,18.70
2018-04-11T07:12:42.720Z,19.05
2018-04-11T07:13:42.760Z,19.14
2018-04-11T07:14:42.811Z,18.82
2018-04-11T07:15:42.857Z,18.86
2018-04-11T07:16:42.949Z,19.11
2018-04-11T07:17:42.957Z,19.14
2018-04-11T07:18:43.006Z,19.32
2018-04-11T07:19:43.053Z,19.33
2018-04-11T07:20:43.102Z,19.84
2018-04-11T07:21:43.183Z,19.57
2018-04-11T07:22:43.200Z,19.42
2018-04-11T07:23:43.251Z,19.15
2018-04-11T07:24:43.299Z,18.87
2018-04-11T07:25:43.355Z,18.47
2018-04-11T07:26:43.445Z,18.02
2018-04-11T07:27:43.456Z,15.81
2018-04-11T07:28:43.503Z,15.52
2018-04-11T07:29:43.550Z,16.15
2018-04-11T07:30:43.600Z,16.99
2018-04-11T07:31:43.683Z,17.28
2018-04-11T07:32:43.697Z,18.02
2018-04-11T07:33:43.778Z,17.26
2018-04-11T07:34:43.799Z,16.41
2018-04-11T07:35:43.972Z,16.50
2018-04-11T07:36:43.922Z,17.15
2018-04-11T07:37:43.947Z,16.48
2018-04-11T07:38:44.020Z,16.01
2018-04-11T07:39:44.047Z,14.95
2018-04-11T07:40:44.103Z,14.80
2018-04-11T07:41:44.148Z,15.35
2018-04-11T07:42:44.220Z,14.38
2018-04-11T07:43:44.248Z,13.74
2018-04-11T07:44:44.303Z,13.12
2018-04-11T07:45:44.348Z,13.21
2018-04-11T07:46:44.395Z,14.09
2018-04-11T07:47:44.473Z,15.06
2018-04-11T07:48:44.500Z,15.43
2018-04-11T07:49:44.546Z,15.17
2018-04-11T07:50:44.625Z,15.52
2018-04-11T07:51:44.644Z,16.18
2018-04-11T07:52:44.719Z,16.16
2018-04-11T07:53:44.742Z,15.85
2018-04-11T07:54:44.792Z,15.46
2018-04-11T07:55:44.871Z,15.78
2018-04-11T07:56:44.890Z,15.66
2018-04-11T07:57:44.939Z,15.13
2018-04-11T07:58:44.989Z,15.19
2018-04-11T07:59:45.040Z,15.03
2018-04-11T08:00:45.127Z,15.51
2018-04-11T08:01:45.139Z,16.34
2018-04-11T08:02:45.190Z,16.80
2018-04-11T08:03:45.237Z,16.49
2018-04-11T08:04:45.285Z,16.30
2018-04-11T08:05:45.365Z,16.04
2018-04-11T08:06:45.383Z,16.22
2018-04-11T08:07:45.440Z,16.58
2018-04-11T08:08:45.483Z,16.37
2018-04-11T08:09:45.540Z,16.03
2018-04-11T08:10:45.608Z,16.58
2018-04-11T08:11:45.635Z,17.13
2018-04-11T08:12:45.683Z,17.71
2018-04-11T08:13:45.767Z,18.03
2018-04-11T08:14:45.805Z,18.47
2018-04-11T08:15:45.832Z,18.79
2018-04-11T08:16:45.921Z,18.70
2018-04-11T08:17:45.932Z,18.13
2018-04-11T08:18:45.988Z,17.20
2018-04-11T08:19:46.047Z,16.18
2018-04-11T08:20:46.081Z,15.63
2018-04-11T08:21:46.157Z,15.82
2018-04-11T08:22:46.194Z,15.56
2018-04-11T08:23:46.239Z,15.64
2018-04-11T08:24:46.321Z,16.04
2018-04-11T08:25:46.336Z,16.75
2018-04-11T08:26:46.385Z,16.80
2018-04-11T08:27:46.437Z,16.53
2018-04-11T08:28:46.487Z,15.38
2018-04-11T08:29:46.565Z,15.11
2018-04-11T08:30:46.587Z,15.06
2018-04-11T08:31:46.661Z,15.41
2018-04-11T08:32:46.713Z,16.06
2018-04-11T08:33:46.742Z,16.53
2018-04-11T08:34:46.787Z,17.15
2018-04-11T08:35:46.838Z,17.76
2018-04-11T08:36:46.890Z,18.29
2018-04-11T08:37:46.962Z,18.29
2018-04-11T08:38:46.992Z,18.03
2018-04-11T08:39:47.042Z,18.03
2018-04-11T08:40:47.091Z,17.51
2018-04-11T08:41:47.140Z,17.23
2018-04-11T08:42:47.217Z,16.95
2018-04-11T08:43:47.242Z,17.35
2018-04-11T08:44:47.293Z,16.37
2018-04-11T08:45:47.365Z,15.64
2018-04-11T08:46:47.393Z,14.64
2018-04-11T08:47:47.449Z,14.65
2018-04-11T08:48:47.519Z,14.02
2018-04-11T08:49:47.555Z,14.04
2018-04-11T08:50:47.598Z,14.21
2018-04-11T08:51:47.681Z,14.20
2018-04-11T08:52:47.698Z,14.69
2018-04-11T08:53:47.749Z,15.36
2018-04-11T08:54:47.799Z,15.48
2018-04-11T08:55:47.850Z,15.05
2018-04-11T08:56:47.929Z,14.53
2018-04-11T08:57:47.952Z,15.09
2018-04-11T08:58:48.001Z,14.75
2018-04-11T08:59:48.051Z,14.61
2018-04-11T09:00:48.100Z,14.86
2018-04-11T09:01:48.177Z,15.21
2018-04-11T09:02:48.203Z,15.68
2018-04-11T09:03:48.887Z,16.58
2018-04-11T09:04:48.339Z,17.00
2018-04-11T09:05:48.354Z,16.30
2018-04-11T09:06:48.403Z,16.15
2018-04-11T09:07:48.455Z,15.60
2018-04-11T09:08:48.507Z,16.04
2018-04-11T09:09:48.578Z,16.33
2018-04-11T09:10:48.615Z,16.04
2018-04-11T09:11:48.658Z,16.30
2018-04-11T09:12:48.738Z,16.35
2018-04-11T09:13:48.759Z,16.42
2018-04-11T09:14:48.815Z,16.67
2018-04-11T09:15:48.861Z,17.04
2018-04-11T09:16:48.944Z,17.32
2018-04-11T09:17:48.986Z,17.50
2018-04-11T09:18:49.015Z,17.38
2018-04-11T09:19:49.066Z,17.63
2018-04-11T09:20:49.130Z,17.47
2018-04-11T09:21:49.192Z,17.22
2018-04-11T09:22:49.220Z,17.54
2018-04-11T09:23:49.270Z,17.67
2018-04-11T09:24:49.321Z,17.76
2018-04-11T09:25:49.372Z,18.21
2018-04-11T09:26:49.449Z,18.37
2018-04-11T09:27:49.474Z,17.99
2018-04-11T09:28:49.526Z,18.12
2018-04-11T09:31:25.427Z,18.74
2018-04-11T09:32:25.447Z,18.80
2018-04-11T09:33:26.342Z,18.84
2018-04-11T09:34:25.600Z,18.87
2018-04-11T09:35:25.598Z,18.82
2018-04-11T09:36:25.688Z,18.82
2018-04-11T09:37:25.702Z,18.67
2018-04-11T09:38:25.770Z,18.03
2018-04-11T09:39:25.805Z,18.02
2018-04-11T09:40:25.858Z,18.24
2018-04-11T09:41:25.935Z,18.50
2018-04-11T09:42:25.967Z,18.79
2018-04-11T09:43:26.018Z,18.82
2018-04-11T09:44:26.093Z,19.08
2018-04-11T09:45:26.123Z,18.79
2018-04-11T09:46:26.180Z,18.21
2018-04-11T09:47:26.251Z,18.17
2018-04-11T09:48:26.277Z,18.22
2018-04-11T09:49:26.334Z,18.34
2018-04-11T09:50:26.423Z,18.36
2018-04-11T09:51:26.437Z,18.34
2018-04-11T09:52:26.491Z,18.62
2018-04-11T09:53:26.542Z,19.14
2018-04-11T09:54:26.595Z,19.10
2018-04-11T09:55:26.669Z,18.99
2018-04-11T09:56:26.701Z,18.49
2018-04-11T09:57:26.751Z,18.80
2018-04-11T09:58:26.877Z,19.08
2018-04-11T09:59:26.859Z,19.58
2018-04-11T10:00:26.943Z,19.50
2018-04-11T10:01:26.966Z,19.35
2018-04-11T10:02:27.024Z,18.61
2018-04-11T10:03:27.101Z,18.29
2018-04-11T10:04:27.120Z,17.35
2018-04-11T10:05:27.174Z,16.93
2018-04-11T10:06:27.229Z,16.98
2018-04-11T10:07:27.283Z,16.62
2018-04-11T10:08:27.356Z,16.37
2018-04-11T10:09:27.387Z,15.99
2018-04-11T10:10:27.443Z,16.25
2018-04-11T10:11:27.514Z,16.58
2018-04-11T10:12:27.547Z,17.22
2018-04-11T10:13:27.620Z,17.64
2018-04-11T10:14:27.673Z,18.02
2018-04-11T10:15:27.700Z,18.29
2018-04-11T10:16:27.757Z,18.79
2018-04-11T10:17:27.849Z,18.99
2018-04-11T10:18:27.858Z,19.39
2018-04-11T10:19:27.915Z,19.70
2018-04-11T10:20:27.960Z,20.15
2018-04-11T10:21:28.013Z,20.39
2018-04-11T10:22:28.118Z,20.80
2018-04-11T10:23:28.121Z,20.27
2018-04-11T10:24:28.172Z,19.39
2018-04-11T10:25:28.224Z,18.52
2018-04-11T10:26:28.283Z,18.13
2018-04-11T10:27:28.352Z,17.97
2018-04-11T10:28:28.382Z,18.03
2018-04-11T10:29:28.461Z,18.03
2018-04-11T10:30:28.490Z,17.88
2018-04-11T10:31:28.546Z,18.00
2018-04-11T10:32:28.597Z,18.06
2018-04-11T10:33:28.643Z,18.27
2018-04-11T10:34:28.738Z,18.09
2018-04-11T10:35:28.750Z,18.24
2018-04-11T10:36:28.806Z,17.73
2018-04-11T10:37:28.855Z,17.67
2018-04-11T10:38:28.908Z,17.62
2018-04-11T10:39:29.013Z,18.15
2018-04-11T10:40:29.032Z,18.76
2018-04-11T10:41:29.070Z,19.31
2018-04-11T10:42:29.119Z,19.48
2018-04-11T10:43:29.171Z,18.83
2018-04-11T10:44:29.253Z,18.03
2018-04-11T10:45:29.314Z,17.55
2018-04-11T10:46:29.331Z,17.95
2018-04-11T10:47:29.381Z,18.39
2018-04-11T10:48:29.435Z,18.19
2018-04-11T10:49:29.492Z,18.34
2018-04-11T10:50:29.564Z,18.50
2018-04-11T10:51:29.595Z,18.82
2018-04-11T10:52:29.645Z,18.62
2018-04-11T10:53:29.700Z,18.59
2018-04-11T10:54:29.755Z,18.37
2018-04-11T10:55:29.826Z,18.18
2018-04-11T10:56:29.855Z,18.03
2018-04-11T10:57:29.909Z,18.07
2018-04-11T10:58:29.969Z,18.47
2018-04-11T10:59:30.016Z,18.47
2018-04-11T11:00:30.097Z,18.00
2018-04-11T11:01:30.119Z,17.89
2018-04-11T11:02:30.174Z,17.59
2018-04-11T11:03:30.224Z,17.62
2018-04-11T11:04:30.283Z,17.88
2018-04-11T11:05:30.360Z,18.17
2018-04-11T11:06:30.385Z,18.84
2018-04-11T11:07:30.436Z,19.43
2018-04-11T11:08:30.490Z,19.84
2018-04-11T11:09:30.541Z,19.47
2018-04-11T11:10:30.650Z,18.84
2018-04-11T11:11:30.646Z,18.58
2018-04-11T11:12:30.701Z,19.05
2018-04-11T11:13:30.762Z,19.63
2018-04-11T11:14:30.805Z,19.57
2018-04-11T11:15:30.882Z,19.97
2018-04-11T11:16:30.911Z,20.30
2018-04-11T11:17:30.988Z,20.84
2018-04-11T11:18:31.020Z,20.89
2018-04-11T11:19:31.072Z,20.93
2018-04-11T11:20:31.125Z,20.99
2018-04-11T11:21:31.179Z,21.06
2018-04-11T11:22:31.263Z,21.50
2018-04-11T11:23:31.311Z,21.26
2018-04-11T11:24:31.343Z,21.27
2018-04-11T11:25:31.402Z,20.93
2018-04-11T11:26:31.451Z,20.66
2018-04-11T11:27:31.505Z,20.51
2018-04-11T11:28:31.584Z,20.31
2018-04-11T11:29:31.613Z,19.50
2018-04-11T11:30:31.670Z,19.38
2018-04-11T11:31:31.727Z,19.38
2018-04-11T11:32:31.778Z,19.13
2018-04-11T11:33:31.856Z,18.83
2018-04-11T11:34:31.888Z,19.15
2018-04-11T11:35:31.942Z,19.18
2018-04-11T11:36:31.997Z,18.84
2018-04-11T11:37:32.063Z,18.80
2018-04-11T11:38:32.131Z,18.84
2018-04-11T11:39:32.184Z,18.33
2018-04-11T11:40:32.216Z,18.64
2018-04-11T11:41:32.269Z,19.42
2018-04-11T11:42:32.322Z,20.06
2018-04-11T11:43:32.377Z,20.21
2018-04-11T11:44:32.472Z,19.86
2018-04-11T11:45:32.486Z,20.16
2018-04-11T11:46:32.543Z,20.47
2018-04-11T11:47:32.598Z,20.47
2018-04-11T11:48:32.653Z,20.31
2018-04-11T11:49:32.730Z,19.65
2018-04-11T11:50:32.761Z,19.32
2018-04-11T11:51:32.812Z,19.17
2018-04-11T11:52:32.886Z,19.40
2018-04-11T11:53:32.926Z,20.03
2018-04-11T11:54:33.008Z,20.90
2018-04-11T11:55:33.045Z,21.34
2018-04-11T11:56:33.087Z,20.81
2018-04-11T11:57:33.161Z,20.31
2018-04-11T11:58:33.198Z,19.57
2018-04-11T11:59:33.296Z,19.14
2018-04-11T12:00:33.309Z,18.82
2018-04-11T12:01:33.363Z,18.68
2018-04-11T12:02:33.483Z,18.84
2018-04-11T12:03:33.477Z,18.83
2018-04-11T12:04:33.933Z,19.21
2018-04-11T12:05:33.634Z,19.23
2018-04-11T12:06:33.664Z,18.99
2018-04-11T12:07:33.697Z,18.98
2018-04-11T12:08:33.753Z,18.83
2018-04-11T12:09:33.806Z,19.08
2018-04-11T12:10:33.860Z,19.28
2018-04-11T12:11:33.956Z,19.20
2018-04-11T12:12:33.977Z,18.97
2018-04-11T12:13:34.030Z,18.77
2018-04-11T12:14:34.079Z,19.08
2018-04-11T12:15:34.135Z,19.42
2018-04-11T12:16:34.230Z,19.32
2018-04-11T12:17:34.245Z,19.65
2018-04-11T12:18:34.304Z,19.73
2018-04-11T12:19:34.355Z,20.10
2018-04-11T12:20:34.409Z,20.53
2018-04-11T12:21:34.489Z,20.91
2018-04-11T12:22:34.556Z,20.71
2018-04-11T12:23:34.575Z,20.34
2018-04-11T12:24:34.633Z,19.94
2018-04-11T12:25:34.685Z,19.91
2018-04-11T12:26:34.741Z,20.12
2018-04-11T12:27:34.827Z,20.16
2018-04-11T12:28:34.878Z,20.46
2018-04-11T12:29:34.973Z,20.31
2018-04-11T12:30:34.965Z,20.25
2018-04-11T12:31:35.019Z,20.61
2018-04-11T12:32:35.110Z,20.69
2018-04-11T12:33:35.134Z,20.87
2018-04-11T12:34:35.198Z,20.05
2018-04-11T12:35:35.245Z,19.75
2018-04-11T12:36:35.304Z,19.65
2018-04-11T12:37:35.384Z,19.88
2018-04-11T12:38:35.438Z,20.42
2018-04-11T12:39:35.470Z,20.79
2018-04-11T12:40:35.526Z,21.01
2018-04-11T12:41:35.583Z,21.35
2018-04-11T12:42:35.642Z,21.85
2018-04-11T12:43:35.720Z,22.23
2018-04-11T12:44:35.754Z,22.67
2018-04-11T12:45:35.814Z,22.62
2018-04-11T12:46:35.869Z,22.47
2018-04-11T12:47:35.924Z,21.97
2018-04-11T12:48:36.012Z,22.01
2018-04-11T12:49:36.063Z,22.29
2018-04-11T12:50:36.099Z,22.37
2018-04-11T12:51:36.155Z,22.43
2018-04-11T12:52:36.212Z,22.07
2018-04-11T12:53:36.273Z,21.88
2018-04-11T12:54:36.354Z,22.16
2018-04-11T12:55:36.408Z,22.14
2018-04-11T12:56:36.443Z,21.46
2018-04-11T12:57:36.506Z,20.95
2018-04-11T12:58:36.564Z,20.89
2018-04-11T12:59:36.649Z,20.89
2018-04-11T13:00:36.677Z,21.29
2018-04-11T13:01:36.737Z,21.76
2018-04-11T13:02:36.792Z,22.23
2018-04-11T13:03:36.851Z,22.65
2018-04-11T13:04:36.937Z,23.04
2018-04-11T13:05:36.967Z,22.72
2018-04-11T13:06:37.027Z,21.98
2018-04-11T13:07:37.088Z,21.06